Stroby Egede, Denmark
Current Conditions -  °F | °C
As of 5:20 PM on Sunday 25 Jan 2015 (Local Time) from EKRK Reporting Station
Moderate Fog Moderate Fog  
Wind Chill: -2°   Ceiling: Unl
Heat Index: -2°   Visibility: 0.12mi
Dew Point: -2°   Wind: 2mph
Humidity: 100%   Direction: 190°S
Pressure: 30.18"   Gusts: NA
Location:  55.41°N, 12.25°E
Report Text: EKRK 251620Z AUTO 19002KT 0200NDV R11/0900VP1500U R29/0800VP1500DFZFG NCD M02/M02 Q1022
Loading
Personal Weather Stations






























Interactive Weather Map New forecast layout! Learn more

10-Day Weather Forecast

Advertisements
Track Severe Weather on mobile